Getulina, Brazil
Current Conditions -  °F | °C
As of 10:00 AM on Wednesday 26 Nov 2014 (Local Time) from SBML Reporting Station
Overcast Overcast  
Wind Chill: 75°   Ceiling: 1300
Heat Index: 75°   Visibility: 6mi
Dew Point: 70°   Wind: 7mph
Humidity: 83%   Direction: 300°WNW
Pressure: 29.88"   Gusts: NA
Location:  21.8°S, 49.93°W
Report Text: SBML 261200Z 30006KT 9999 BKN013 OVC025 24/21 Q1012
Loading
Personal Weather Stations






























Interactive Weather Map New forecast layout! Learn more

10-Day Weather Forecast

Advertisements
Track Severe Weather on mobile